PROFILE

 METAR AND TAF INFORMATION
ADDS - METARS form results

(2109 UTC 18 February 2019)
http://aviationweather.gov/metar/data/
 
KBOS 182054Z 34009KT 7SM -SN FEW014 OVC024 M02/M05 A2988 RMK AO2 CIG 014 E SLP117 P0000 60002 T10221050 53018
KBOS 182029Z 34009KT 5SM -SN BKN014 OVC021 M02/M05 A2986 RMK AO2 P0000 T10221050
KBOS 182100Z 1821/1924 34010KT P6SM -SN SCT015 OVC025 TEMPO 1821/1823 5SM -SN BKN015 FM190000 34010G18KT P6SM BKN040 FM190200 32012G20KT P6SM SCT250 FM191700 31010KT P6SM FEW250 FM192300 30009KT P6SM SKC 

 AIRPORT MAP

 RUNWAY INFORMATION
Runway 04L Runway length 7861 ft Runway width 150 ft
Runway elevation 14 ft Runway displaced threshold 0 ft Runway heading 20
Runway 22R Runway length 7861 ft Runway width 150 ft
Runway elevation 15 ft Runway displaced threshold 815 ft Runway heading 200
Runway 04R Runway length 10005 ft Runway width 150 ft
Runway elevation 18 ft Runway displaced threshold 1154 ft Runway heading 20
Runway 22L Runway length 10005 ft Runway width 150 ft
Runway elevation 16 ft Runway displaced threshold 1199 ft Runway heading 200
Runway 09 Runway length 7000 ft Runway width 150 ft
Runway elevation 17 ft Runway displaced threshold 0 ft Runway heading 77
Runway 27 Runway length 7000 ft Runway width 150 ft
Runway elevation 15 ft Runway displaced threshold 0 ft Runway heading 257
Runway 14 Runway length 5000 ft Runway width 100 ft
Runway elevation 17 ft Runway displaced threshold 0 ft Runway heading 125
Runway 32 Runway length 5000 ft Runway width 100 ft
Runway elevation 20 ft Runway displaced threshold 0 ft Runway heading 305
Runway 15L Runway length 2557 ft Runway width 100 ft
Runway elevation 15 ft Runway displaced threshold 0 ft Runway heading 135
Runway 33R Runway length 2557 ft Runway width 100 ft
Runway elevation 14 ft Runway displaced threshold 0 ft Runway heading 315
Runway 15R Runway length 10083 ft Runway width 150 ft
Runway elevation 17 ft Runway displaced threshold 880 ft Runway heading 135
Runway 33L Runway length 10083 ft Runway width 150 ft
Runway elevation 15 ft Runway displaced threshold 0 ft Runway heading 315

 AIRPORT FREQUENCIES
Type APP Name BOSTON APP Frequency 118.25 MHZ
Type ATIS Name ATIS Frequency 135 MHZ
Type CLD Name CLNC DEL Frequency 121.65 MHZ
Type DEP Name BOSTON DEP Frequency 133 MHZ
Type GND Name GND Frequency 121.9 MHZ
Type GTE Name GATE Frequency 134.05 MHZ
Type RDO Name BRIDGEPORT Frequency 122.4 MHZ
Type TWR Name BOSTON TWR Frequency 124.725 MHZ
Type UNIC Name UNICOM Frequency 122.95 MHZ

 AIRPORT NEAR NAVIGATION AIDS
Type NDB Name Miltt Frequency 375 KHZ
Type VORTAC Name Boston Frequency 112700 KHZ
Type NDB Name Hullz Frequency 346 KHZ
Type NDB Name Lyndy Frequency 382 KHZ